createdAt,value
2019-02-18T00:06:37.911Z,38.51
2019-02-18T00:16:37.968Z,38.38
2019-02-18T00:26:37.930Z,39.11
2019-02-18T00:36:37.999Z,38.75
2019-02-18T00:46:37.950Z,38.63
2019-02-18T00:56:37.998Z,39.10
2019-02-18T01:06:37.926Z,37.82
2019-02-18T01:16:37.963Z,38.16
2019-02-18T01:26:37.955Z,39.28
2019-02-18T01:36:37.909Z,40.14
2019-02-18T01:46:37.959Z,39.70
2019-02-18T01:56:38.037Z,41.21
2019-02-18T02:06:37.926Z,41.75
2019-02-18T02:16:38.800Z,43.50
2019-02-18T02:26:38.051Z,44.23
2019-02-18T02:36:38.062Z,44.46
2019-02-18T02:46:38.007Z,43.78
2019-02-18T02:56:37.998Z,43.75
2019-02-18T03:06:37.931Z,43.91
2019-02-18T03:16:37.929Z,45.25
2019-02-18T03:26:37.916Z,45.69
2019-02-18T03:36:38.010Z,46.02
2019-02-18T03:46:38.004Z,45.62
2019-02-18T03:56:38.901Z,46.15
2019-02-18T04:06:37.906Z,47.08
2019-02-18T04:16:37.895Z,47.54
2019-02-18T04:26:37.937Z,47.33
2019-02-18T04:36:38.129Z,48.15
2019-02-18T04:46:37.912Z,48.42
2019-02-18T04:56:37.991Z,49.42
2019-02-18T05:06:37.984Z,49.52
2019-02-18T05:16:37.942Z,50.20
2019-02-18T05:26:37.991Z,49.65
2019-02-18T05:36:37.975Z,50.32
2019-02-18T05:46:37.950Z,52.01
2019-02-18T05:56:38.031Z,51.94
2019-02-18T06:06:38.092Z,52.57
2019-02-18T06:16:37.920Z,53.90
2019-02-18T06:26:37.954Z,55.46
2019-02-18T06:36:38.024Z,55.93
2019-02-18T06:46:37.945Z,55.21
2019-02-18T06:56:38.071Z,51.35
2019-02-18T07:06:38.799Z,49.89
2019-02-18T07:16:38.039Z,53.16
2019-02-18T07:26:38.721Z,56.74
2019-02-18T07:36:38.048Z,58.07
2019-02-18T07:46:38.034Z,55.10
2019-02-18T07:56:38.018Z,51.85
2019-02-18T08:06:38.001Z,52.34
2019-02-18T08:16:37.939Z,51.24
2019-02-18T08:26:37.997Z,47.56
2019-02-18T08:36:38.089Z,46.67
2019-02-18T08:46:38.493Z,44.74
2019-02-18T08:56:38.026Z,43.27
2019-02-18T09:06:37.984Z,40.25
2019-02-18T09:16:38.048Z,37.23
2019-02-18T09:26:38.058Z,35.15
2019-02-18T09:36:38.016Z,31.54
2019-02-18T09:46:40.316Z,29.71
2019-02-18T09:56:37.983Z,30.20
2019-02-18T10:06:37.952Z,31.94
2019-02-18T10:16:37.924Z,31.04
2019-02-18T10:26:38.042Z,30.88
2019-02-18T10:36:38.032Z,29.02
2019-02-18T10:46:40.512Z,27.45
2019-02-18T10:56:38.657Z,27.66
2019-02-18T11:06:38.136Z,27.30
2019-02-18T11:16:39.305Z,26.40
2019-02-18T11:26:38.022Z,25.43
2019-02-18T11:36:38.089Z,25.58
2019-02-18T11:46:40.210Z,23.92
2019-02-18T11:56:38.159Z,24.49
2019-02-18T12:06:37.933Z,25.42
2019-02-18T12:16:38.102Z,25.37
2019-02-18T12:26:38.089Z,25.87
2019-02-18T12:36:38.102Z,27.47
2019-02-18T12:46:38.100Z,27.91
2019-02-18T12:56:38.139Z,27.56
2019-02-18T13:06:38.169Z,27.93
2019-02-18T13:16:38.956Z,27.31
2019-02-18T13:26:40.952Z,28.12
2019-02-18T13:36:38.186Z,28.01
2019-02-18T13:46:38.131Z,26.76
2019-02-18T13:56:39.327Z,26.07
2019-02-18T14:06:38.095Z,27.49
2019-02-18T14:16:38.103Z,27.23
2019-02-18T14:26:37.998Z,27.18
2019-02-18T14:36:38.156Z,27.19
2019-02-18T14:46:39.040Z,26.06
2019-02-18T14:56:38.169Z,29.33
2019-02-18T15:06:38.257Z,27.44
2019-02-18T15:16:38.032Z,27.30
2019-02-18T15:26:38.439Z,33.78
2019-02-18T15:36:38.152Z,35.44
2019-02-18T15:46:38.143Z,37.54
2019-02-18T15:56:38.193Z,39.41
2019-02-18T16:06:38.078Z,40.04
2019-02-18T16:16:38.110Z,42.79
2019-02-18T16:26:38.068Z,43.39
2019-02-18T16:36:38.007Z,43.44
2019-02-18T16:46:38.063Z,44.40
2019-02-18T16:56:38.101Z,45.65
2019-02-18T17:06:38.655Z,46.46
2019-02-18T17:16:38.011Z,47.73
2019-02-18T17:26:38.009Z,47.73
2019-02-18T17:36:38.100Z,48.47
2019-02-18T17:46:38.086Z,49.66
2019-02-18T17:56:38.046Z,50.63
2019-02-18T18:06:38.055Z,51.03
2019-02-18T18:16:38.076Z,51.60
2019-02-18T18:26:38.092Z,52.33
2019-02-18T18:36:38.048Z,53.22
2019-02-18T18:46:38.092Z,53.57
2019-02-18T18:56:38.067Z,53.70
2019-02-18T19:06:38.014Z,54.34
2019-02-18T19:16:38.229Z,55.42
2019-02-18T19:26:38.042Z,55.49
2019-02-18T19:36:38.014Z,55.30
2019-02-18T19:46:38.050Z,55.45
2019-02-18T19:56:38.018Z,55.67
2019-02-18T20:06:38.017Z,55.74
2019-02-18T20:16:38.056Z,55.83
2019-02-18T20:26:38.087Z,56.03
2019-02-18T20:36:37.980Z,56.82
2019-02-18T20:46:38.048Z,56.54
2019-02-18T20:56:39.154Z,57.21
2019-02-18T21:06:38.014Z,57.36
2019-02-18T21:16:38.077Z,57.58
2019-02-18T21:26:38.055Z,57.23
2019-02-18T21:36:38.076Z,58.28
2019-02-18T21:46:39.073Z,58.94
2019-02-18T21:56:37.952Z,58.37
2019-02-18T22:06:38.113Z,58.34
2019-02-18T22:16:38.040Z,58.77
2019-02-18T22:26:37.981Z,58.96
2019-02-18T22:36:37.956Z,58.42
2019-02-18T22:46:38.324Z,57.02
2019-02-18T22:56:40.655Z,55.92
2019-02-18T23:06:37.995Z,55.78
2019-02-18T23:16:37.923Z,55.43
2019-02-18T23:26:38.017Z,55.52
2019-02-18T23:36:37.939Z,55.31
2019-02-18T23:46:38.011Z,54.14
2019-02-18T23:56:38.024Z,54.46
